LNG Dream — C6VO5 — position and weather

sailwx.info

Track history (hours):
 
Tides and Currents Weather Stations Pressure Air Temp Water Temp Dewpoint Dewpoint Depression Visibility Wind Speed Wind Dir Waves Ship Positions

LNG Dream

Last reported at 2018-Feb-16 10:53 UTC. Time now 2018-Feb-21 17:49 UTC.
Position S 20°30' E 116°44'.

Length 289.6 m; beam 49 m.

Type: Ship (hazmat cat A). MMSI: 309065000.

Date/timePositionNaut miles runAvg speedWind from/ knotsBaromVisibWave heightAir tempDewpointWater temp
2018-Feb-16 10:53S 20°30' E 116°44'4 9.3
2018-Feb-16 10:29S 20°33' E 116°44'3 5.1
2018-Feb-16 09:57S 20°35' E 116°46'0 0.0
2018-Feb-15 07:02S 20°35' E 116°46'0 0.0
2018-Feb-15 06:57S 20°35' E 116°46'0 0.6
2018-Feb-15 06:30S 20°35' E 116°46'3 6.2
2018-Feb-15 05:59S 20°33' E 116°43'610.9
2018-Feb-15 05:29S 20°27' E 116°44'4 9.4
2018-Feb-15 05:00S 20°23' E 116°44'4 8.1
2018-Feb-15 04:30S 20°19' E 116°44'4 7.4
2018-Feb-15 04:00S 20°15' E 116°45'3 5.7
2018-Feb-15 03:29S 20°13' E 116°47'5 9.5
2018-Feb-15 03:00S 20°10' E 116°51'612.7
2018-Feb-15 02:30S 20°04' E 116°55'611.6
2018-Feb-15 01:59S 19°58' E 116°54'713.7
2018-Feb-15 01:30S 19°53' E 116°49'714.3
2018-Feb-15 01:00S 19°48' E 116°44'5 9.8
2018-Feb-15 00:29S 19°43' E 116°43'714.8
2018-Feb-15 00:00S 19°43' E 116°50'817.3
2018-Feb-14 23:30S 19°43' E 116°59'815.8
2018-Feb-14 23:00S 19°42' E 117°08'918.0
2018-Feb-14 22:30S 19°34' E 117°12'918.0
2018-Feb-14 22:00S 19°26' E 117°17'10017.5
2018-Feb-14 16:18S 17°60' E 118°09'  
Track history (hours):
 
Tides and Currents Weather Stations Pressure Air Temp Water Temp Dewpoint Dewpoint Depression Visibility Wind Speed Wind Dir Waves Ship Positions

LNG Dream

Last reported at 2018-Feb-16 10:53 UTC. Time now 2018-Feb-21 17:49 UTC.
Position S 20°30' E 116°44'.

Length 289.6 m; beam 49 m.

Type: Ship (hazmat cat A). MMSI: 309065000.

Date/timePositionNaut miles runAvg speedWind from/ knotsBaromVisibWave heightAir tempDewpointWater temp
2018-Feb-16 10:53S 20°30' E 116°44'4 9.3
2018-Feb-16 10:29S 20°33' E 116°44'3 5.1
2018-Feb-16 09:57S 20°35' E 116°46'0 0.0
2018-Feb-15 07:02S 20°35' E 116°46'0 0.0
2018-Feb-15 06:57S 20°35' E 116°46'0 0.6
2018-Feb-15 06:30S 20°35' E 116°46'3 6.2
2018-Feb-15 05:59S 20°33' E 116°43'610.9
2018-Feb-15 05:29S 20°27' E 116°44'4 9.4
2018-Feb-15 05:00S 20°23' E 116°44'4 8.1
2018-Feb-15 04:30S 20°19' E 116°44'4 7.4
2018-Feb-15 04:00S 20°15' E 116°45'3 5.7
2018-Feb-15 03:29S 20°13' E 116°47'5 9.5
2018-Feb-15 03:00S 20°10' E 116°51'612.7
2018-Feb-15 02:30S 20°04' E 116°55'611.6
2018-Feb-15 01:59S 19°58' E 116°54'713.7
2018-Feb-15 01:30S 19°53' E 116°49'714.3
2018-Feb-15 01:00S 19°48' E 116°44'5 9.8
2018-Feb-15 00:29S 19°43' E 116°43'714.8
2018-Feb-15 00:00S 19°43' E 116°50'817.3
2018-Feb-14 23:30S 19°43' E 116°59'815.8
2018-Feb-14 23:00S 19°42' E 117°08'918.0
2018-Feb-14 22:30S 19°34' E 117°12'918.0
2018-Feb-14 22:00S 19°26' E 117°17'10017.5
2018-Feb-14 16:18S 17°60' E 118°09'  

Dump ship's entire track history